Kimble County, TX

4:58 AM CST on March 01, 2015 (GMT -0600)
Kerrville Municipal-Schreiner | Change Station
CLOSE
Current Station
Airport
Location: Kerrville,
Elevation: 1617 ft
Nearby Weather Stations
Active Advisory: Winter Weather Advisory Active Notice: Record Report

Elev 1617 ft 29.98 °N, 99.09 °W | Updated 23 minutes ago

Fog
Fog
36 °F
Feels Like 36 °F
N
0
Wind Variable Wind from North

Today
High -- | Low -- °F
--% Chance of Precip.
Yesterday
High -- | Low -- °F
Precip. -- in
7:05 AM 6:37 PM
Waxing Gibbous, 84% visible
Pressure 30.17 in
Visibility 1.5 miles
Clouds Overcast 200 ft
Dew Point 35 °F
Humidity 96%
Rainfall 0.01 in
Snow Depth Not available.
UV 0 out of 12
Pollen 6.90 out of 12
Air Quality Not available.
Flu Activity Not available.
METAR KERV 011035Z AUTO 00000KT 1 1/2SM BR OVC002 02/02 A3017 RMK AO2 T00220016

More Conditions Fewer Conditions

Pressure 30.17 in
Visibility 1.5 miles
Clouds Overcast 200 ft
Dew Point 35 °F
Humidity 96%
Rainfall 0.01 in
Snow Depth Not available.
UV 0 out of 12
Pollen 6.90 out of 12
Air Quality Not available.
Flu Activity Not available.
METAR KERV 011035Z AUTO 00000KT 1 1/2SM BR OVC002 02/02 A3017 RMK AO2 T00220016

More Conditions Fewer Conditions

10-Day Weather Forecast

Almanac

Astronomy

Mar. 01, 2015 Rise Set
Actual Time
Civil Twilight
Nautical Twilight
Astronomical Twilight
Moon
Length of Visible Light
Length of Day
Tomorrow will be .
, % of the Moon is Illuminated

Today's Extremes

State Highs State Lows

Community

WunderPhotos

Upload Photos

1,801,359 photos uploaded!

WunderBlogs® & News

Nearby

Air Quality

  Air Quality AQ Index Pollutant
Not available.

Snow Depth

Station Depth Elevation

Earthquake Activity

City Distance Mag. Time & Date
Minimum magnitude displayed is 2.5.

Coastal Water Temperatures

Place Temperature

Nearby Weather Stations

Winter Weather Advisory
Statement as of 3:18 AM CST on March 01, 2015

... Winter Weather Advisory remains in effect until 9 am CST this
morning...

* impacts: slick and hazardous roads... especially bridges...
overpasses... and secondary roads.

* Timing: through 9 am this morning.

* Accumulations: a few hundredths of an inch or less.

Precautionary/preparedness actions...

A Winter Weather Advisory means that periods of snow... sleet... or
freezing rain will cause travel difficulties. Be prepared for
slippery roads and limited visibilities and use caution while
driving.